Time;durP1;ratioP1;P1;durP2;ratioP2;P2;SDS_P1;SDS_P2;PMS_P1;PMS_P2;Temp;Humidity;BMP_temperature;BMP_pressure;BME280_temperature;BME280_humidity;BME280_pressure;Samples;Min_cycle;Max_cycle;Signal;HPM_P1;HPM_P2
2021/12/14 00:01:25;;;;;;;6.72;2.90;;;9.80;97.40;;;;;;5045204;28;20087;-59
2021/12/14 00:03:54;;;;;;;13.65;5.43;;;9.70;97.40;;;;;;5040911;28;20128;-59
2021/12/14 00:06:21;;;;;;;9.93;3.58;;;9.80;97.40;;;;;;5045887;28;20122;-58
2021/12/14 00:08:55;;;;;;;10.18;3.47;;;9.70;97.40;;;;;;5039508;28;20049;-61
2021/12/14 00:14:26;;;;;;;5.72;3.08;;;9.70;97.50;;;;;;5041979;28;20098;-60
2021/12/14 00:16:56;;;;;;;7.38;2.97;;;9.60;97.50;;;;;;5046871;28;20044;-60
2021/12/14 00:19:24;;;;;;;11.13;3.63;;;9.60;97.60;;;;;;5035336;28;20077;-60
2021/12/14 00:21:53;;;;;;;9.48;2.72;;;9.60;97.60;;;;;;5053938;28;20040;-60
2021/12/14 00:24:22;;;;;;;11.82;3.75;;;9.70;97.70;;;;;;5036982;28;20530;-60
2021/12/14 00:26:55;;;;;;;8.07;3.17;;;9.70;97.70;;;;;;5047049;28;20045;-60
2021/12/14 00:29:28;;;;;;;8.87;3.33;;;9.70;97.70;;;;;;5038717;28;20092;-60
2021/12/14 00:31:55;;;;;;;11.00;3.13;;;9.70;97.70;;;;;;5053049;28;20060;-61
2021/12/14 00:34:34;;;;;;;5.70;3.60;;;9.70;97.70;;;;;;5034764;28;20084;-61
2021/12/14 00:37:01;;;;;;;8.75;3.35;;;9.70;97.90;;;;;;5053753;28;20118;-64
2021/12/14 00:39:28;;;;;;;6.70;3.38;;;9.70;97.90;;;;;;5038411;28;20136;-60
2021/12/14 00:41:55;;;;;;;7.10;3.22;;;9.60;97.80;;;;;;5052353;28;20049;-60
2021/12/14 00:44:22;;;;;;;9.25;3.60;;;9.70;97.80;;;;;;5041051;28;20107;-60
2021/12/14 00:46:49;;;;;;;9.43;3.95;;;9.60;97.80;;;;;;5029805;28;20052;-61
2021/12/14 00:49:16;;;;;;;12.05;3.95;;;9.70;97.90;;;;;;5042231;28;20053;-61
2021/12/14 00:51:43;;;;;;;6.38;3.50;;;9.70;97.80;;;;;;5042473;28;20137;-61
2021/12/14 00:54:12;;;;;;;7.72;3.78;;;9.60;97.80;;;;;;5039322;28;20045;-61
2021/12/14 00:56:43;;;;;;;7.93;3.47;;;9.70;97.90;;;;;;5038459;28;20099;-61
2021/12/14 00:59:12;;;;;;;5.80;3.45;;;9.60;97.90;;;;;;5041557;28;20562;-61
2021/12/14 01:01:43;;;;;;;9.98;4.47;;;9.70;98.00;;;;;;5052693;28;20084;-61
2021/12/14 01:04:17;;;;;;;9.75;3.65;;;9.60;97.90;;;;;;5054015;28;20504;-62
2021/12/14 01:06:45;;;;;;;8.15;4.15;;;9.60;98.00;;;;;;5049605;28;20114;-61
2021/12/14 01:09:18;;;;;;;8.70;3.72;;;9.50;98.10;;;;;;5045399;28;20053;-61
2021/12/14 01:11:46;;;;;;;6.88;4.10;;;9.60;98.20;;;;;;5056634;28;20080;-61
2021/12/14 01:14:41;;;;;;;7.78;4.25;;;9.60;98.20;;;;;;5026189;28;20049;-61
2021/12/14 01:17:13;;;;;;;7.80;4.22;;;9.50;98.70;;;;;;5045515;28;20049;-61
2021/12/14 01:19:45;;;;;;;9.10;4.47;;;9.50;98.70;;;;;;5046724;28;20049;-61
2021/12/14 01:22:40;;;;;;;9.93;4.60;;;9.50;98.40;;;;;;5051286;28;20580;-61
2021/12/14 01:25:37;;;;;;;12.13;4.53;;;9.50;98.40;;;;;;5037115;28;20489;-62
2021/12/14 01:28:07;;;;;;;8.63;4.25;;;9.40;98.80;;;;;;5018408;28;20040;-61
2021/12/14 01:30:37;;;;;;;8.32;3.85;;;9.40;98.50;;;;;;5028635;28;20080;-60
2021/12/14 01:33:07;;;;;;;8.45;3.85;;;9.40;98.40;;;;;;5037090;28;20068;-61
2021/12/14 01:35:36;;;;;;;8.73;4.10;;;9.50;98.50;;;;;;5039537;28;20567;-62
2021/12/14 01:38:17;;;;;;;9.45;3.50;;;9.50;98.80;;;;;;5049192;28;20057;-61
2021/12/14 01:40:53;;;;;;;10.52;4.47;;;9.40;98.70;;;;;;5043153;28;20103;-61
2021/12/14 01:43:31;;;;;;;9.90;4.25;;;9.40;98.70;;;;;;5021836;28;20052;-61
2021/12/14 01:45:59;;;;;;;10.25;4.15;;;9.40;98.60;;;;;;5038191;28;20099;-61
2021/12/14 01:48:27;;;;;;;9.48;4.35;;;9.40;98.70;;;;;;5048362;28;20447;-61
2021/12/14 01:50:58;;;;;;;8.18;4.07;;;9.40;98.70;;;;;;5049982;28;20041;-61
2021/12/14 01:53:25;;;;;;;5.97;3.97;;;9.40;99.30;;;;;;5058015;28;20087;-61
2021/12/14 01:55:55;;;;;;;7.78;3.72;;;9.40;98.80;;;;;;5046277;28;20072;-61
2021/12/14 01:58:23;;;;;;;9.30;4.07;;;9.40;98.90;;;;;;4699881;28;9999708;-61
2021/12/14 02:00:54;;;;;;;9.45;3.78;;;9.40;98.70;;;;;;5039209;28;20046;-62
2021/12/14 02:03:27;;;;;;;9.23;3.53;;;9.40;98.90;;;;;;5046880;28;20048;-61
2021/12/14 02:05:54;;;;;;;6.72;3.70;;;9.40;99.00;;;;;;5020937;28;20099;-61
2021/12/14 02:08:27;;;;;;;9.55;3.72;;;9.40;99.00;;;;;;5050908;28;20044;-61
2021/12/14 02:10:54;;;;;;;6.80;4.00;;;9.40;98.80;;;;;;5047436;28;20056;-61
2021/12/14 02:13:26;;;;;;;6.57;3.67;;;9.40;98.90;;;;;;5049630;28;20073;-61
2021/12/14 02:15:52;;;;;;;8.27;4.45;;;9.40;99.00;;;;;;5040746;28;20099;-61
2021/12/14 02:18:21;;;;;;;9.10;3.95;;;9.40;98.90;;;;;;5045639;28;20067;-61
2021/12/14 02:21:06;;;;;;;11.02;4.15;;;9.50;98.90;;;;;;5042472;28;20041;-61
2021/12/14 02:23:33;;;;;;;5.07;3.72;;;9.50;99.00;;;;;;5048080;28;20053;-60
2021/12/14 02:26:03;;;;;;;7.57;4.28;;;9.50;99.00;;;;;;5025982;28;20061;-61
2021/12/14 02:28:30;;;;;;;5.50;4.10;;;9.60;99.00;;;;;;5023224;28;20068;-61
2021/12/14 02:30:57;;;;;;;8.45;4.30;;;9.60;98.90;;;;;;5049867;28;20053;-61
2021/12/14 02:33:35;;;;;;;6.97;4.20;;;9.70;98.90;;;;;;5041588;28;20072;-61
2021/12/14 02:36:05;;;;;;;5.80;3.90;;;9.70;98.90;;;;;;5059454;28;20079;-61
2021/12/14 02:38:32;;;;;;;7.57;4.20;;;9.70;98.90;;;;;;5041932;28;20057;-61
2021/12/14 02:41:05;;;;;;;9.80;4.38;;;9.80;98.90;;;;;;5043804;28;20155;-61
2021/12/14 02:43:49;;;;;;;14.32;5.00;;;9.70;98.90;;;;;;5036577;28;20073;-61
2021/12/14 02:46:38;;;;;;;11.93;4.43;;;9.80;99.00;;;;;;5011454;28;20081;-62
2021/12/14 02:49:07;;;;;;;6.43;4.63;;;9.90;99.00;;;;;;5003565;28;20145;-62
2021/12/14 02:51:39;;;;;;;9.05;5.10;;;9.90;98.90;;;;;;5044213;28;20045;-61
2021/12/14 02:54:09;;;;;;;5.72;4.00;;;10.00;98.90;;;;;;5040842;28;20091;-61
2021/12/14 02:56:36;;;;;;;10.00;5.05;;;10.00;98.90;;;;;;5031678;28;20040;-63
2021/12/14 02:59:06;;;;;;;8.40;5.28;;;10.00;98.90;;;;;;5017682;28;20095;-60
2021/12/14 03:01:33;;;;;;;8.15;5.25;;;10.10;98.90;;;;;;5042885;28;20060;-60
2021/12/14 03:04:01;;;;;;;12.10;5.13;;;10.00;98.90;;;;;;5039112;28;20057;-61
2021/12/14 03:06:30;;;;;;;10.00;5.53;;;10.10;99.00;;;;;;5053957;28;20068;-60
2021/12/14 03:09:08;;;;;;;9.48;5.38;;;10.10;98.90;;;;;;5019256;28;20523;-61
2021/12/14 03:11:36;;;;;;;7.05;4.90;;;10.10;98.90;;;;;;5050784;28;20042;-60
2021/12/14 03:14:03;;;;;;;7.90;5.25;;;10.10;98.90;;;;;;5038974;28;20718;-60
2021/12/14 03:16:31;;;;;;;11.70;5.53;;;10.10;98.90;;;;;;5037329;28;20081;-60
2021/12/14 03:18:59;;;;;;;8.60;4.80;;;10.10;99.00;;;;;;5051322;28;20049;-61
2021/12/14 03:21:28;;;;;;;9.98;5.25;;;10.10;99.00;;;;;;5049051;28;20530;-61
2021/12/14 03:24:07;;;;;;;9.48;5.10;;;10.10;99.00;;;;;;5036973;28;20088;-61
2021/12/14 03:26:35;;;;;;;11.02;4.82;;;10.10;99.10;;;;;;5048609;28;20064;-60
2021/12/14 03:29:14;;;;;;;9.68;5.22;;;10.20;99.10;;;;;;5050550;28;20095;-61
2021/12/14 03:31:43;;;;;;;9.50;5.53;;;10.20;99.10;;;;;;5047518;28;20115;-62
2021/12/14 03:34:11;;;;;;;9.40;4.70;;;10.20;99.00;;;;;;5041878;28;20057;-61
2021/12/14 03:36:44;;;;;;;12.18;5.60;;;10.20;99.10;;;;;;5038655;28;20099;-61
2021/12/14 03:39:20;;;;;;;13.45;5.55;;;10.20;99.10;;;;;;5048014;28;20107;-61
2021/12/14 03:42:11;;;;;;;10.02;4.95;;;10.20;99.20;;;;;;5045476;28;20488;-61
2021/12/14 03:44:40;;;;;;;9.55;4.53;;;10.20;99.30;;;;;;5048992;28;20428;-60
2021/12/14 03:47:18;;;;;;;7.75;4.70;;;10.20;99.20;;;;;;5047310;28;20072;-60
2021/12/14 03:49:50;;;;;;;10.13;4.28;;;10.20;99.30;;;;;;5034880;28;20049;-60
2021/12/14 03:52:20;;;;;;;11.10;4.57;;;10.20;99.30;;;;;;5031623;28;20050;-61
2021/12/14 03:54:46;;;;;;;7.07;4.07;;;10.30;99.20;;;;;;5047841;28;20044;-61
2021/12/14 03:57:13;;;;;;;8.43;4.50;;;10.20;99.20;;;;;;5034283;28;20084;-61
2021/12/14 03:59:40;;;;;;;7.57;4.03;;;10.30;99.20;;;;;;5030252;28;20048;-61
2021/12/14 04:02:10;;;;;;;8.75;3.90;;;10.30;99.10;;;;;;5032939;28;20728;-61
2021/12/14 04:04:43;;;;;;;7.43;4.07;;;10.30;99.20;;;;;;5051018;28;20041;-61
2021/12/14 04:07:12;;;;;;;12.95;4.47;;;10.30;99.10;;;;;;5041553;28;20076;-61
2021/12/14 04:09:40;;;;;;;7.60;3.78;;;10.40;99.10;;;;;;5054612;28;20041;-61
2021/12/14 04:12:09;;;;;;;11.68;3.92;;;10.30;99.30;;;;;;5021751;28;20049;-61
2021/12/14 04:14:38;;;;;;;6.45;3.78;;;10.40;99.00;;;;;;5036334;28;20041;-61
2021/12/14 04:17:05;;;;;;;5.15;3.30;;;10.40;99.30;;;;;;5043561;28;20517;-61
2021/12/14 04:19:34;;;;;;;8.77;4.35;;;10.30;99.00;;;;;;5031143;28;20064;-61
2021/12/14 04:22:04;;;;;;;7.82;3.70;;;10.30;98.90;;;;;;5043610;28;20052;-61
2021/12/14 04:24:33;;;;;;;7.55;4.07;;;10.30;99.00;;;;;;5062418;28;20071;-61
2021/12/14 04:27:01;;;;;;;10.75;4.18;;;10.30;99.00;;;;;;5042890;28;20072;-61
2021/12/14 04:29:27;;;;;;;13.68;4.80;;;10.30;98.90;;;;;;5065184;28;20052;-61
2021/12/14 04:31:54;;;;;;;7.38;3.60;;;10.30;99.00;;;;;;5025200;28;20041;-61
2021/12/14 04:34:21;;;;;;;6.85;3.65;;;10.30;99.00;;;;;;5062025;28;20060;-61
2021/12/14 04:36:51;;;;;;;13.88;4.03;;;10.30;99.00;;;;;;5043578;28;20269;-61
2021/12/14 04:53:20;;;;;;;8.15;4.10;;;10.50;98.90;;;;;;5042710;28;20037;-61
2021/12/14 04:55:47;;;;;;;11.32;4.93;;;10.50;98.80;;;;;;5058794;28;20095;-61
2021/12/14 04:58:14;;;;;;;11.05;4.38;;;10.50;98.80;;;;;;5042379;28;20052;-61
2021/12/14 05:00:46;;;;;;;11.27;5.78;;;10.50;98.90;;;;;;5049377;28;20460;-60
2021/12/14 05:03:17;;;;;;;12.73;4.53;;;10.50;98.90;;;;;;5044978;28;20053;-61
2021/12/14 05:05:57;;;;;;;7.28;3.80;;;10.50;98.90;;;;;;5050068;28;20077;-60
2021/12/14 05:11:10;;;;;;;13.73;4.93;;;10.50;98.90;;;;;;5007436;28;20042;-61
2021/12/14 05:13:39;;;;;;;8.90;4.40;;;10.50;98.90;;;;;;5041096;28;20049;-61
2021/12/14 05:16:06;;;;;;;9.68;4.75;;;10.50;98.80;;;;;;5053581;28;20045;-61
2021/12/14 05:18:33;;;;;;;10.63;4.25;;;10.50;99.00;;;;;;5042315;28;20045;-61
2021/12/14 05:21:00;;;;;;;13.88;5.07;;;10.60;98.90;;;;;;5053503;28;20523;-61
2021/12/14 05:23:28;;;;;;;12.68;5.72;;;10.60;98.90;;;;;;5041563;28;20649;-60
2021/12/14 05:25:56;;;;;;;13.30;4.68;;;10.50;98.90;;;;;;5052191;28;20106;-62
2021/12/14 05:28:23;;;;;;;7.80;5.47;;;10.60;98.90;;;;;;5038525;28;20088;-60
2021/12/14 05:30:52;;;;;;;8.65;4.70;;;10.60;98.90;;;;;;5048846;28;20398;-60
2021/12/14 05:33:25;;;;;;;12.60;5.40;;;10.50;98.90;;;;;;5022835;28;20111;-60
2021/12/14 05:35:53;;;;;;;9.25;4.97;;;10.50;98.90;;;;;;5052659;28;20086;-60
2021/12/14 05:38:29;;;;;;;9.82;4.45;;;10.60;99.20;;;;;;5050595;28;20431;-60
2021/12/14 05:41:08;;;;;;;6.28;4.15;;;10.60;99.00;;;;;;5048191;28;20558;-60
2021/12/14 05:43:35;;;;;;;12.75;4.65;;;10.60;98.90;;;;;;5052401;28;20076;-60
2021/12/14 05:46:04;;;;;;;11.57;4.82;;;10.60;98.90;;;;;;5020766;28;20115;-60
2021/12/14 05:48:34;;;;;;;8.05;4.20;;;10.60;99.00;;;;;;5051731;28;20088;-60
2021/12/14 05:51:04;;;;;;;13.00;5.50;;;10.50;99.00;;;;;;5044424;28;20053;-60
2021/12/14 05:53:36;;;;;;;8.65;4.30;;;10.60;99.00;;;;;;5047051;28;20045;-60
2021/12/14 05:56:11;;;;;;;8.18;5.40;;;10.60;99.00;;;;;;5037993;28;20049;-61
2021/12/14 05:58:38;;;;;;;10.75;4.57;;;10.60;99.10;;;;;;5035966;28;20052;-61
2021/12/14 06:01:10;;;;;;;13.48;6.10;;;10.50;99.00;;;;;;5052858;28;20048;-61
2021/12/14 06:03:45;;;;;;;12.52;5.40;;;10.50;99.00;;;;;;5052115;28;20049;-61
2021/12/14 06:06:17;;;;;;;14.07;6.72;;;10.50;98.90;;;;;;5048240;28;20563;-61
2021/12/14 06:08:44;;;;;;;13.00;6.55;;;10.40;98.90;;;;;;5040800;28;20544;-61
2021/12/14 06:11:20;;;;;;;10.00;5.70;;;10.40;99.00;;;;;;5045567;28;20055;-62
2021/12/14 06:13:47;;;;;;;15.57;6.55;;;10.30;99.20;;;;;;5039638;28;20045;-60
2021/12/14 06:16:25;;;;;;;12.27;6.65;;;10.20;99.10;;;;;;5039674;28;20067;-64
2021/12/14 06:18:53;;;;;;;9.93;5.22;;;10.20;99.30;;;;;;5034883;28;20068;-60
2021/12/14 06:21:30;;;;;;;17.20;6.60;;;10.10;99.30;;;;;;5048886;28;20048;-60
2021/12/14 06:24:05;;;;;;;15.32;6.63;;;10.10;99.50;;;;;;5034255;28;20054;-61
2021/12/14 06:26:43;;;;;;;13.23;5.53;;;10.00;99.40;;;;;;5049015;28;20495;-60
2021/12/14 06:29:13;;;;;;;11.95;6.75;;;10.00;99.40;;;;;;5057680;28;20110;-61
2021/12/14 06:31:41;;;;;;;16.58;6.50;;;10.00;99.30;;;;;;5041075;28;20056;-60
2021/12/14 06:34:20;;;;;;;15.50;6.85;;;10.00;99.30;;;;;;5035260;28;20046;-62
2021/12/14 06:37:03;;;;;;;11.30;6.20;;;10.00;99.40;;;;;;5044224;28;20107;-61
2021/12/14 06:39:32;;;;;;;20.23;7.88;;;10.00;99.40;;;;;;5042730;28;20091;-60
2021/12/14 06:42:08;;;;;;;11.80;6.57;;;10.00;99.50;;;;;;5040196;28;20531;-60
2021/12/14 06:44:35;;;;;;;14.13;5.88;;;10.00;99.40;;;;;;5044822;28;20046;-60
2021/12/14 06:47:01;;;;;;;13.48;7.13;;;10.00;99.60;;;;;;5043264;28;20068;-60
2021/12/14 06:49:29;;;;;;;17.15;7.38;;;10.00;99.60;;;;;;5048799;28;20087;-60
2021/12/14 06:51:56;;;;;;;14.82;7.60;;;10.00;99.70;;;;;;5040268;28;20042;-61
2021/12/14 06:54:26;;;;;;;16.85;6.78;;;9.90;99.70;;;;;;5045658;28;20049;-61
2021/12/14 06:56:56;;;;;;;15.45;6.38;;;9.90;99.70;;;;;;5040888;28;20488;-61
2021/12/14 06:59:31;;;;;;;15.60;6.03;;;9.90;99.80;;;;;;5034191;28;20415;-59
2021/12/14 07:02:00;;;;;;;12.95;6.38;;;9.90;99.90;;;;;;5039483;28;20056;-60
2021/12/14 07:04:29;;;;;;;18.30;6.20;;;9.90;99.90;;;;;;5046643;28;20075;-60
2021/12/14 07:07:01;;;;;;;18.05;7.97;;;9.90;99.90;;;;;;5034234;28;20068;-60
2021/12/14 07:09:50;;;;;;;13.77;6.55;;;9.90;99.90;;;;;;5028920;28;20107;-61
2021/12/14 07:12:27;;;;;;;15.90;7.53;;;9.90;99.90;;;;;;5039629;28;20087;-60
2021/12/14 07:15:06;;;;;;;25.05;6.28;;;9.90;99.90;;;;;;5050965;28;20037;-60
2021/12/14 07:17:42;;;;;;;19.45;6.90;;;9.90;99.90;;;;;;5037967;28;20055;-60
2021/12/14 07:20:18;;;;;;;19.63;6.72;;;9.90;99.90;;;;;;5031774;28;20057;-61
2021/12/14 07:23:28;;;;;;;14.88;7.80;;;9.90;99.90;;;;;;5027904;28;20064;-61
2021/12/14 07:26:04;;;;;;;12.80;8.80;;;9.90;99.90;;;;;;5033916;28;20051;-62
2021/12/14 07:28:37;;;;;;;19.48;7.15;;;9.90;99.90;;;;;;5040061;28;20500;-62
2021/12/14 07:31:19;;;;;;;13.90;6.80;;;9.90;99.90;;;;;;5051632;28;20119;-61
2021/12/14 07:33:48;;;;;;;16.10;7.65;;;9.90;99.90;;;;;;5047309;28;20047;-61
2021/12/14 07:36:27;;;;;;;21.75;7.43;;;9.90;99.90;;;;;;5042333;28;20063;-62
2021/12/14 07:38:59;;;;;;;16.15;7.70;;;9.90;99.90;;;;;;5045172;28;20048;-59
2021/12/14 07:41:30;;;;;;;14.73;7.15;;;9.90;99.90;;;;;;5044629;28;20044;-59
2021/12/14 07:43:57;;;;;;;11.00;7.25;;;10.00;99.90;;;;;;5041809;28;20610;-61
2021/12/14 07:46:38;;;;;;;14.80;7.90;;;9.90;99.90;;;;;;5049188;28;20059;-59
2021/12/14 07:49:10;;;;;;;17.77;7.55;;;10.00;99.90;;;;;;5040648;28;20724;-60
2021/12/14 07:51:39;;;;;;;25.33;12.32;;;9.90;99.90;;;;;;5048808;28;20045;-60
2021/12/14 07:54:14;;;;;;;15.30;8.18;;;9.90;99.90;;;;;;5038957;28;20118;-61
2021/12/14 07:56:44;;;;;;;14.27;8.25;;;9.90;99.90;;;;;;5028473;28;20083;-59
2021/12/14 07:59:29;;;;;;;17.73;8.38;;;10.00;99.90;;;;;;5043851;28;20045;-58
2021/12/14 08:02:08;;;;;;;;;;;10.00;99.90;;;;;;5041141;28;20049;-59
2021/12/14 08:04:36;;;;;;;16.15;8.95;;;9.90;99.90;;;;;;5040759;28;19925;-59
2021/12/14 08:07:03;;;;;;;14.88;7.95;;;10.00;99.90;;;;;;5056159;28;20068;-58
2021/12/14 08:09:47;;;;;;;15.75;9.52;;;10.00;99.90;;;;;;5044962;28;20045;-58
2021/12/14 08:12:33;;;;;;;21.67;9.75;;;10.00;99.90;;;;;;5034734;28;20561;-59
2021/12/14 08:15:29;;;;;;;19.20;9.13;;;10.00;99.90;;;;;;5039163;28;20138;-59
2021/12/14 08:18:06;;;;;;;19.42;9.63;;;10.00;99.90;;;;;;5044112;28;20144;-60
2021/12/14 08:20:33;;;;;;;15.88;9.40;;;10.00;99.90;;;;;;5045394;28;20126;-59
2021/12/14 08:23:14;;;;;;;20.42;9.27;;;10.00;99.90;;;;;;5053238;28;20515;-59
2021/12/14 08:25:41;;;;;;;18.40;10.40;;;10.10;99.90;;;;;;5037938;28;20092;-60
2021/12/14 08:28:08;;;;;;;22.08;10.10;;;10.10;99.90;;;;;;5040889;28;20049;-60
2021/12/14 08:30:36;;;;;;;26.98;9.57;;;10.20;99.90;;;;;;5022080;28;20080;-59
2021/12/14 08:33:03;;;;;;;15.38;9.43;;;10.20;99.90;;;;;;5042874;28;20075;-61
2021/12/14 08:35:30;;;;;;;16.75;9.77;;;10.20;99.90;;;;;;5038378;28;20076;-62
2021/12/14 08:37:59;;;;;;;21.20;9.00;;;10.30;99.90;;;;;;5054097;28;20106;-60
2021/12/14 08:40:29;;;;;;;19.48;8.50;;;10.30;99.90;;;;;;5036823;28;20057;-61
2021/12/14 08:43:22;;;;;;;14.73;8.88;;;10.40;99.90;;;;;;5041932;28;20470;-61
2021/12/14 08:45:53;;;;;;;14.95;9.27;;;10.40;99.90;;;;;;5037181;28;20048;-61
2021/12/14 08:48:30;;;;;;;22.17;8.68;;;10.50;99.90;;;;;;5038604;28;20056;-61
2021/12/14 08:51:00;;;;;;;17.10;9.18;;;10.60;99.90;;;;;;5044470;28;20052;-61
2021/12/14 08:53:30;;;;;;;14.48;7.90;;;10.60;99.90;;;;;;5024867;28;20053;-61
2021/12/14 08:55:58;;;;;;;15.70;8.30;;;10.60;99.90;;;;;;5038716;28;20049;-61
2021/12/14 08:58:25;;;;;;;18.80;8.45;;;10.70;99.90;;;;;;5043845;28;20160;-61
2021/12/14 09:00:54;;;;;;;24.63;10.63;;;10.70;99.90;;;;;;5021671;28;20091;-61
2021/12/14 09:03:34;;;;;;;21.35;9.23;;;10.80;99.90;;;;;;5046846;28;20049;-61
2021/12/14 09:06:04;;;;;;;16.08;8.80;;;10.80;99.90;;;;;;5041817;28;20076;-61
2021/12/14 09:08:31;;;;;;;18.92;9.07;;;10.80;99.90;;;;;;5052026;28;20512;-60
2021/12/14 09:10:58;;;;;;;19.25;8.68;;;10.90;99.90;;;;;;5041107;28;20095;-61
2021/12/14 09:13:25;;;;;;;24.13;8.77;;;10.90;99.90;;;;;;5046891;28;20552;-61
2021/12/14 09:16:16;;;;;;;22.23;8.25;;;10.90;99.90;;;;;;5022259;28;20095;-61
2021/12/14 09:18:50;;;;;;;19.50;7.75;;;11.00;99.90;;;;;;5038103;28;20187;-61
2021/12/14 09:21:21;;;;;;;18.73;7.55;;;11.00;99.90;;;;;;5040250;28;20057;-61
2021/12/14 09:23:52;;;;;;;15.82;9.02;;;11.00;99.90;;;;;;5050806;28;20084;-61
2021/12/14 09:26:24;;;;;;;21.75;8.05;;;11.10;99.90;;;;;;5035535;28;20107;-61
2021/12/14 09:28:51;;;;;;;21.98;8.50;;;11.10;99.90;;;;;;5049513;28;20080;-61
2021/12/14 09:31:21;;;;;;;16.88;7.45;;;11.20;99.90;;;;;;5048120;28;20049;-61
2021/12/14 09:33:49;;;;;;;19.52;7.70;;;11.20;99.90;;;;;;5040917;28;20084;-61
2021/12/14 09:36:16;;;;;;;19.70;7.05;;;11.30;99.90;;;;;;5038951;28;20080;-61
2021/12/14 09:38:54;;;;;;;24.67;9.05;;;11.30;99.90;;;;;;5036948;28;20123;-61
2021/12/14 09:41:24;;;;;;;12.88;7.25;;;11.40;99.90;;;;;;5049704;28;20106;-61
2021/12/14 09:43:51;;;;;;;14.30;6.97;;;11.40;99.90;;;;;;5055015;28;20044;-60
2021/12/14 09:46:18;;;;;;;21.25;7.93;;;11.40;99.90;;;;;;5053269;28;20068;-61
2021/12/14 09:48:53;;;;;;;26.45;8.48;;;11.40;99.90;;;;;;5024840;28;20048;-61
2021/12/14 09:51:29;;;;;;;25.33;7.60;;;11.50;99.90;;;;;;5029891;28;20045;-61
2021/12/14 09:53:57;;;;;;;20.13;6.93;;;11.50;99.90;;;;;;5043123;28;20060;-61
2021/12/14 09:56:26;;;;;;;21.88;6.10;;;11.50;99.90;;;;;;5054829;28;20055;-61
2021/12/14 09:58:58;;;;;;;18.02;7.82;;;11.50;99.80;;;;;;5047281;28;20111;-60
2021/12/14 10:01:30;;;;;;;20.48;6.57;;;11.60;99.80;;;;;;5056715;28;20049;-61
2021/12/14 10:03:59;;;;;;;18.38;6.03;;;11.50;99.80;;;;;;5042542;28;20147;-61
2021/12/14 10:06:28;;;;;;;12.90;6.10;;;11.60;99.70;;;;;;5039153;28;20040;-61
2021/12/14 10:08:59;;;;;;;20.98;6.55;;;11.70;99.70;;;;;;5046117;28;20136;-61
2021/12/14 10:14:29;;;;;;;17.98;6.05;;;11.70;99.60;;;;;;5047607;28;20063;-59
2021/12/14 10:16:55;;;;;;;15.57;5.68;;;11.70;99.50;;;;;;5048077;28;20102;-60
2021/12/14 10:19:25;;;;;;;20.58;5.75;;;11.80;99.80;;;;;;5044864;28;20411;-60
2021/12/14 10:21:55;;;;;;;20.25;6.78;;;11.80;99.50;;;;;;5035064;28;20041;-60
2021/12/14 10:24:22;;;;;;;14.55;5.43;;;11.80;99.40;;;;;;5038427;28;20490;-60
2021/12/14 10:26:53;;;;;;;14.73;5.55;;;11.90;99.40;;;;;;5052149;28;20045;-60
2021/12/14 10:29:20;;;;;;;14.15;5.68;;;11.90;99.30;;;;;;5042937;28;20451;-59
2021/12/14 10:31:52;;;;;;;19.75;5.05;;;11.90;99.20;;;;;;5057289;28;20048;-59
2021/12/14 10:34:23;;;;;;;17.60;5.57;;;12.00;98.90;;;;;;5034466;28;20049;-60
2021/12/14 10:37:00;;;;;;;13.35;5.07;;;12.00;99.00;;;;;;5056682;28;20491;-58
2021/12/14 10:44:49;;;;;;;16.15;5.13;;;12.10;98.80;;;;;;5040629;28;20069;-60
2021/12/14 10:47:16;;;;;;;15.88;5.50;;;12.20;98.80;;;;;;5055195;28;20068;-60
2021/12/14 10:49:47;;;;;;;21.05;5.57;;;12.20;98.70;;;;;;5039517;28;20053;-60
2021/12/14 10:52:16;;;;;;;12.43;4.45;;;12.20;98.60;;;;;;5041949;28;20081;-60
2021/12/14 10:54:46;;;;;;;12.20;6.22;;;12.20;98.60;;;;;;5037380;28;20042;-59
2021/12/14 10:57:15;;;;;;;13.75;5.35;;;12.20;98.50;;;;;;5053318;28;20796;-60
2021/12/14 10:59:42;;;;;;;13.75;5.13;;;12.30;98.40;;;;;;5030862;28;20045;-60
2021/12/14 11:02:09;;;;;;;11.70;4.82;;;12.30;98.30;;;;;;5053046;28;20107;-60
2021/12/14 11:04:42;;;;;;;24.30;6.78;;;12.30;98.30;;;;;;5039628;28;20073;-60
2021/12/14 11:07:15;;;;;;;17.50;6.05;;;12.30;98.30;;;;;;5052100;28;20504;-60
2021/12/14 11:09:42;;;;;;;21.30;7.63;;;12.30;98.30;;;;;;5036720;28;20042;-59
2021/12/14 11:12:31;;;;;;;13.68;6.10;;;12.40;98.20;;;;;;5047720;28;20504;-60
2021/12/14 11:15:05;;;;;;;12.68;6.15;;;12.40;97.60;;;;;;5026279;28;20508;-60
2021/12/14 11:20:21;;;;;;;12.40;4.15;;;12.50;97.40;;;;;;5036663;28;19948;-60
2021/12/14 11:22:53;;;;;;;10.07;4.20;;;12.50;97.60;;;;;;5031032;28;20049;-60
2021/12/14 11:25:37;;;;;;;13.57;6.97;;;12.60;97.90;;;;;;5020092;28;20103;-60
2021/12/14 11:28:07;;;;;;;11.57;4.05;;;12.60;97.50;;;;;;5031251;28;20049;-60
2021/12/14 11:30:43;;;;;;;12.02;3.95;;;12.70;97.60;;;;;;5015446;28;20099;-60
2021/12/14 11:33:17;;;;;;;12.48;4.65;;;12.70;96.80;;;;;;5029076;28;20045;-60
2021/12/14 11:35:47;;;;;;;;;;;12.70;97.10;;;;;;5017883;28;20118;-61
2021/12/14 11:38:39;;;;;;;15.35;3.88;;;12.70;96.10;;;;;;5031275;28;19987;-61
2021/12/14 11:41:29;;;;;;;10.38;4.25;;;12.70;96.40;;;;;;5022899;28;20050;-61
2021/12/14 11:44:21;;;;;;;26.35;12.50;;;12.70;96.10;;;;;;5033717;28;20098;-60
2021/12/14 11:46:58;;;;;;;23.73;7.93;;;12.80;96.40;;;;;;5018095;28;20068;-61
2021/12/14 11:49:44;;;;;;;18.50;7.05;;;12.80;96.70;;;;;;5035613;28;20294;-62
2021/12/14 11:52:11;;;;;;;23.52;8.95;;;12.80;96.80;;;;;;5021760;28;20873;-60
2021/12/14 11:54:43;;;;;;;14.38;5.18;;;12.90;97.30;;;;;;5025438;28;20056;-60
2021/12/14 11:57:11;;;;;;;13.90;5.85;;;12.90;96.70;;;;;;5021403;28;20555;-60
2021/12/14 11:59:38;;;;;;;16.58;6.10;;;12.90;97.10;;;;;;5020059;28;20080;-60
2021/12/14 12:02:05;;;;;;;15.55;4.68;;;12.90;97.30;;;;;;5019935;28;20111;-61
2021/12/14 12:04:35;;;;;;;20.75;6.25;;;13.00;97.20;;;;;;5031295;28;20041;-60
2021/12/14 12:09:54;;;;;;;10.60;4.70;;;13.10;97.00;;;;;;5037002;28;20045;-60
2021/12/14 12:12:23;;;;;;;17.60;4.82;;;13.10;96.20;;;;;;5019417;28;20041;-60
2021/12/14 12:14:56;;;;;;;14.20;4.85;;;13.10;96.60;;;;;;5033649;28;20044;-59
2021/12/14 12:17:42;;;;;;;9.93;5.82;;;13.00;97.00;;;;;;5016249;28;20046;-59
2021/12/14 12:20:14;;;;;;;16.65;4.53;;;13.10;96.30;;;;;;5019564;28;20081;-59
2021/12/14 12:22:43;;;;;;;21.67;5.03;;;13.10;96.90;;;;;;5017184;28;20485;-59
2021/12/14 12:25:54;;;;;;;24.80;6.05;;;13.10;96.80;;;;;;5051190;28;20103;-60
2021/12/14 12:28:26;;;;;;;13.55;4.35;;;13.10;96.20;;;;;;5042036;28;20037;-59
2021/12/14 12:31:09;;;;;;;13.20;5.50;;;13.10;96.60;;;;;;5032774;28;20045;-59
2021/12/14 12:33:42;;;;;;;12.70;5.72;;;13.10;96.60;;;;;;5043755;28;20048;-59
2021/12/14 12:36:10;;;;;;;12.90;6.70;;;13.10;95.90;;;;;;5044796;28;20430;-59
2021/12/14 12:38:43;;;;;;;15.88;4.15;;;13.10;96.50;;;;;;5041283;28;20141;-60
2021/12/14 12:41:47;;;;;;;17.35;4.63;;;13.20;96.50;;;;;;5058011;28;20086;-59
2021/12/14 12:44:24;;;;;;;15.05;5.53;;;13.20;95.90;;;;;;5046364;28;20048;-60
2021/12/14 12:46:57;;;;;;;15.77;4.85;;;13.20;96.10;;;;;;5054445;28;20045;-59
2021/12/14 12:49:28;;;;;;;22.55;5.28;;;13.20;96.40;;;;;;5046455;28;20128;-59
2021/12/14 12:51:58;;;;;;;12.90;4.50;;;13.20;96.50;;;;;;5054531;28;20657;-59
2021/12/14 12:54:31;;;;;;;17.15;4.90;;;13.20;96.50;;;;;;5046568;28;20098;-60
2021/12/14 12:57:33;;;;;;;15.80;4.35;;;13.20;96.30;;;;;;5062228;28;20457;-60
2021/12/14 13:00:16;;;;;;;14.73;4.72;;;13.10;95.90;;;;;;5048724;28;20044;-60
2021/12/14 13:02:53;;;;;;;18.58;5.22;;;13.10;96.40;;;;;;5048644;28;20796;-59
2021/12/14 13:05:45;;;;;;;12.07;4.10;;;13.10;96.50;;;;;;5053479;28;20044;-61
2021/12/14 13:08:20;;;;;;;19.15;4.68;;;13.20;96.20;;;;;;5046838;28;20045;-60
2021/12/14 13:11:08;;;;;;;8.45;3.45;;;13.20;96.30;;;;;;5055424;28;20049;-60
2021/12/14 13:13:40;;;;;;;20.63;4.60;;;13.10;96.20;;;;;;5045830;28;20038;-60
2021/12/14 13:16:20;;;;;;;18.30;5.00;;;13.20;96.20;;;;;;5051861;28;20090;-59
2021/12/14 13:19:00;;;;;;;10.57;4.40;;;13.20;96.40;;;;;;5044021;28;20050;-61
2021/12/14 13:21:31;;;;;;;16.65;4.10;;;13.20;96.40;;;;;;5054601;28;20131;-59
2021/12/14 13:24:03;;;;;;;22.25;4.53;;;13.20;96.10;;;;;;5043146;28;20715;-59
2021/12/14 13:26:51;;;;;;;18.75;4.72;;;13.20;96.40;;;;;;5053923;28;20049;-60
2021/12/14 13:29:26;;;;;;;9.98;4.18;;;13.20;95.90;;;;;;5039244;28;20107;-60
2021/12/14 13:31:55;;;;;;;11.52;4.20;;;13.20;96.20;;;;;;5051286;28;20080;-60
2021/12/14 13:34:59;;;;;;;14.90;4.70;;;13.30;96.30;;;;;;5038991;28;20132;-59
2021/12/14 13:37:34;;;;;;;9.02;4.13;;;13.30;96.30;;;;;;5055347;28;20060;-60
2021/12/14 13:40:05;;;;;;;16.92;4.05;;;13.30;96.30;;;;;;5044919;28;20100;-59
2021/12/14 13:42:40;;;;;;;12.98;4.00;;;13.30;96.10;;;;;;5052184;28;20045;-60
2021/12/14 13:45:11;;;;;;;12.02;4.15;;;13.20;96.20;;;;;;5034856;28;20049;-60